Accueil
METAR-TAF:

METAR-TAF

Aéroports :

Seldovia, Alaska, États-Unis

latitude: 59-27N, longitude: 151-42W, altitude: 9 m

Observation

Le bulletin a été fait il y a 46 minutes, à 02:08 UTC
Vent 3 kt de direction variable
Température 16°C
Humidité 82%
Pression 1017 hPa
Visibilité: 16.1 km
Nuages épars à une hauteur de 1600 ft
Nuages fragmentés à une hauteur de 2800 ft
Ciel couvert à une hauteur de 4700 ft

METAR: PASO 200208Z AUTO VRB03KT 10SM SCT016 BKN028 OVC047 16/13 A3002 RMK AO2 T01610128 TSNO $

Heure: 18:54 (02:54 UTC)


TAF: absent

Observations et prévisions météorologiques de plus de 4000 aéroports (messages METAR et TAF).

Les stations disponibles sont représentées par des disques jaunes et rouges sur la carte.

Passer la souris dessus pour voir le nom de la station.

Cliquer dessus pour voir les observations et prévisions météorologiques.

Pour changer de carte: cliquez sur les boutons verts avec une croix noire pour zoomer, sur le bouton vert avec un tiret pour effectuer un zoom arrière, ou sur les flèches vertes pour les cartes adjacentes.


METAR-TAF: